createdAt,value
2018-03-16T00:01:50.306Z,39.53
2018-03-16T00:04:17.866Z,40.20
2018-03-16T00:06:45.446Z,34.37
2018-03-16T00:09:13.002Z,39.10
2018-03-16T00:11:40.543Z,37.70
2018-03-16T00:14:08.226Z,41.27
2018-03-16T00:16:35.775Z,39.17
2018-03-16T00:19:03.330Z,38.97
2018-03-16T00:21:30.898Z,40.33
2018-03-16T00:23:58.460Z,40.80
2018-03-16T00:26:26.130Z,40.50
2018-03-16T00:28:53.794Z,38.07
2018-03-16T00:31:21.455Z,41.30
2018-03-16T00:33:49.017Z,38.73
2018-03-16T00:36:16.609Z,39.63
2018-03-16T00:38:44.243Z,36.10
2018-03-16T00:41:11.941Z,38.80
2018-03-16T00:43:40.384Z,38.87
2018-03-16T00:46:07.935Z,37.03
2018-03-16T00:48:35.508Z,41.57
2018-03-16T00:51:03.066Z,36.33
2018-03-16T00:53:30.624Z,36.63
2018-03-16T00:55:58.190Z,37.47
2018-03-16T00:58:25.763Z,38.20
2018-03-16T01:00:53.307Z,38.67
2018-03-16T01:03:20.883Z,41.30
2018-03-16T01:05:48.479Z,36.70
2018-03-16T01:08:16.813Z,36.50
2018-03-16T01:10:44.371Z,39.67
2018-03-16T01:13:11.925Z,37.07
2018-03-16T01:15:39.472Z,41.13
2018-03-16T01:18:07.040Z,38.73
2018-03-16T01:20:40.433Z,40.60
2018-03-16T01:23:07.987Z,40.53
2018-03-16T01:25:35.532Z,39.83
2018-03-16T01:28:03.118Z,39.97
2018-03-16T01:30:30.691Z,38.57
2018-03-16T01:32:58.236Z,38.90
2018-03-16T01:35:25.806Z,37.33
2018-03-16T01:37:53.383Z,38.73
2018-03-16T01:40:21.124Z,40.27
2018-03-16T01:42:48.700Z,39.80
2018-03-16T01:45:16.267Z,38.47
2018-03-16T01:47:43.816Z,41.53
2018-03-16T01:50:11.381Z,37.43
2018-03-16T01:52:38.935Z,39.03
2018-03-16T01:55:06.483Z,44.77
2018-03-16T01:57:34.054Z,43.43
2018-03-16T02:00:02.468Z,43.33
2018-03-16T02:02:30.121Z,43.10
2018-03-16T02:04:57.681Z,41.40
2018-03-16T02:07:25.232Z,43.93
2018-03-16T02:09:52.792Z,40.87
2018-03-16T02:12:20.456Z,42.17
2018-03-16T02:14:48.006Z,44.10
2018-03-16T02:17:15.582Z,42.70
2018-03-16T02:19:43.141Z,43.43
2018-03-16T02:22:10.690Z,44.20
2018-03-16T02:24:38.240Z,41.93
2018-03-16T02:27:05.806Z,42.20
2018-03-16T02:29:33.349Z,42.10
2018-03-16T02:32:00.904Z,42.27
2018-03-16T02:34:28.473Z,41.67
2018-03-16T02:36:56.076Z,37.57
2018-03-16T02:39:23.623Z,40.67
2018-03-16T02:41:51.277Z,41.53
2018-03-16T02:44:18.827Z,40.20
2018-03-16T02:46:46.377Z,38.67
2018-03-16T02:49:13.951Z,36.83
2018-03-16T02:51:41.503Z,36.03
2018-03-16T02:54:09.061Z,36.17
2018-03-16T02:56:36.656Z,35.67
2018-03-16T02:59:04.218Z,39.13
2018-03-16T03:01:31.882Z,35.47
2018-03-16T03:03:59.438Z,34.90
2018-03-16T03:06:26.998Z,37.97
2018-03-16T03:08:54.542Z,35.33
2018-03-16T03:11:22.117Z,34.13
2018-03-16T03:13:49.668Z,35.03
2018-03-16T03:16:17.252Z,33.83
2018-03-16T03:18:44.831Z,34.10
2018-03-16T03:21:12.376Z,36.23
2018-03-16T03:23:39.921Z,34.20
2018-03-16T03:26:07.500Z,34.20
2018-03-16T03:28:35.150Z,32.87
2018-03-16T03:31:02.718Z,30.37
2018-03-16T03:33:30.579Z,30.40
2018-03-16T03:35:58.148Z,31.60
2018-03-16T03:38:25.701Z,33.57
2018-03-16T03:40:53.280Z,33.70
2018-03-16T03:43:20.935Z,33.07
2018-03-16T03:45:48.585Z,36.17
2018-03-16T03:48:16.147Z,38.20
2018-03-16T03:50:43.709Z,32.37
2018-03-16T03:53:11.265Z,30.73
2018-03-16T03:55:38.928Z,32.63
2018-03-16T03:58:06.484Z,33.70
2018-03-16T04:00:34.050Z,32.07
2018-03-16T04:03:01.705Z,31.73
2018-03-16T04:05:29.273Z,31.43
2018-03-16T04:07:56.821Z,33.63
2018-03-16T04:10:24.398Z,33.90
2018-03-16T04:12:51.943Z,32.33
2018-03-16T04:15:19.481Z,30.07
2018-03-16T04:17:47.823Z,29.87
2018-03-16T04:20:15.466Z,26.83
2018-03-16T04:22:43.009Z,31.33
2018-03-16T04:25:10.690Z,32.27
2018-03-16T04:27:38.258Z,29.27
2018-03-16T04:30:05.835Z,32.33
2018-03-16T04:32:33.470Z,34.90
2018-03-16T04:35:01.019Z,31.90
2018-03-16T04:37:28.570Z,30.73
2018-03-16T04:39:56.143Z,39.33
2018-03-16T04:42:23.680Z,32.57
2018-03-16T04:44:51.287Z,35.27
2018-03-16T04:47:18.859Z,35.83
2018-03-16T04:49:46.413Z,36.77
2018-03-16T04:52:13.958Z,35.90
2018-03-16T04:54:41.610Z,35.83
2018-03-16T04:57:09.175Z,36.37
2018-03-16T04:59:36.736Z,33.60
2018-03-16T05:02:04.407Z,34.20
2018-03-16T05:04:31.950Z,38.00
2018-03-16T05:06:59.530Z,34.97
2018-03-16T05:09:27.098Z,35.53
2018-03-16T05:11:54.642Z,36.97
2018-03-16T05:14:22.199Z,39.47
2018-03-16T05:16:49.869Z,34.50
2018-03-16T05:19:17.441Z,37.57
2018-03-16T05:21:44.993Z,37.77
2018-03-16T05:24:12.562Z,34.03
2018-03-16T05:26:40.110Z,35.10
2018-03-16T05:29:07.666Z,33.40
2018-03-16T05:31:35.227Z,30.73
2018-03-16T05:34:02.839Z,34.27
2018-03-16T05:36:30.492Z,31.97
2018-03-16T05:38:58.078Z,32.40
2018-03-16T05:41:26.398Z,33.20
2018-03-16T05:43:53.968Z,31.13
2018-03-16T05:46:21.633Z,31.83
2018-03-16T05:48:49.203Z,33.67
2018-03-16T05:51:16.750Z,32.93
2018-03-16T05:53:44.410Z,31.87
2018-03-16T05:56:11.956Z,32.17
2018-03-16T05:58:39.501Z,31.87
2018-03-16T06:01:07.083Z,34.17
2018-03-16T06:03:34.657Z,32.67
2018-03-16T06:06:02.213Z,34.17
2018-03-16T06:08:29.794Z,32.03
2018-03-16T06:10:57.365Z,35.23
2018-03-16T06:13:25.684Z,32.87
2018-03-16T06:15:53.292Z,31.57
2018-03-16T06:18:20.836Z,32.67
2018-03-16T06:20:48.385Z,31.73
2018-03-16T06:23:15.948Z,30.27
2018-03-16T06:25:43.491Z,36.63
2018-03-16T06:28:11.037Z,30.00
2018-03-16T06:30:39.372Z,30.30
2018-03-16T06:33:06.919Z,31.27
2018-03-16T06:35:34.484Z,29.10
2018-03-16T06:38:02.072Z,29.67
2018-03-16T06:40:29.628Z,31.27
2018-03-16T06:42:57.287Z,27.83
2018-03-16T06:45:24.953Z,28.60
2018-03-16T06:47:52.540Z,27.73
2018-03-16T06:50:20.885Z,29.63
2018-03-16T06:52:48.442Z,26.13
2018-03-16T06:55:16.088Z,26.80
2018-03-16T06:57:43.651Z,28.90
2018-03-16T07:00:11.324Z,27.37
2018-03-16T07:02:38.877Z,28.47
2018-03-16T07:05:06.446Z,27.13
2018-03-16T07:07:33.998Z,25.70
2018-03-16T07:10:01.535Z,25.63
2018-03-16T07:12:29.090Z,26.27
2018-03-16T07:14:56.668Z,27.17
2018-03-16T07:17:24.217Z,26.60
2018-03-16T07:19:51.767Z,25.87
2018-03-16T07:22:19.368Z,24.80
2018-03-16T07:24:46.930Z,29.10
2018-03-16T07:27:14.501Z,24.03
2018-03-16T07:29:42.079Z,28.67
2018-03-16T07:32:10.440Z,27.70
2018-03-16T07:34:37.989Z,25.23
2018-03-16T07:37:05.553Z,28.47
2018-03-16T07:39:33.112Z,28.20
2018-03-16T07:42:00.672Z,27.20
2018-03-16T07:44:28.220Z,27.30
2018-03-16T07:46:55.768Z,28.17
2018-03-16T07:49:23.325Z,31.60
2018-03-16T07:51:50.909Z,31.20
2018-03-16T07:54:18.472Z,34.07
2018-03-16T07:56:46.030Z,34.37
2018-03-16T07:59:13.595Z,32.03
2018-03-16T08:01:41.144Z,33.47
2018-03-16T08:04:08.694Z,31.60
2018-03-16T08:06:36.275Z,34.83
2018-03-16T08:09:03.822Z,35.23
2018-03-16T08:11:31.400Z,37.13
2018-03-16T08:13:59.067Z,37.13
2018-03-16T08:16:26.651Z,34.87
2018-03-16T08:18:54.257Z,32.30
2018-03-16T08:21:22.578Z,32.67
2018-03-16T08:23:50.129Z,30.00
2018-03-16T08:26:17.688Z,40.53
2018-03-16T08:28:45.363Z,33.83
2018-03-16T08:31:12.934Z,38.37
2018-03-16T08:33:40.493Z,50.10
2018-03-16T08:36:08.070Z,42.00
2018-03-16T08:38:35.642Z,36.97
2018-03-16T08:41:03.997Z,64.23
2018-03-16T08:43:33.186Z,41.37
2018-03-16T08:46:00.789Z,58.20
2018-03-16T08:48:28.326Z,59.63
2018-03-16T08:50:55.902Z,64.83
2018-03-16T08:53:24.221Z,73.60
2018-03-16T08:55:51.764Z,48.93
2018-03-16T08:58:19.336Z,48.93
2018-03-16T09:00:46.926Z,53.53
2018-03-16T09:03:14.668Z,30.73
2018-03-16T09:05:42.246Z,47.13
2018-03-16T09:08:09.822Z,37.10
2018-03-16T09:10:37.376Z,31.60
2018-03-16T09:13:05.031Z,40.50
2018-03-16T09:15:32.592Z,31.73
2018-03-16T09:18:00.157Z,36.17
2018-03-16T09:20:27.734Z,26.70
2018-03-16T09:22:55.287Z,28.33
2018-03-16T09:25:22.938Z,36.90
2018-03-16T09:27:50.507Z,34.03
2018-03-16T09:30:18.076Z,31.87
2018-03-16T09:32:45.635Z,27.57
2018-03-16T09:35:13.296Z,37.33
2018-03-16T09:37:40.967Z,34.57
2018-03-16T09:40:08.610Z,35.97
2018-03-16T09:42:36.187Z,35.53
2018-03-16T09:45:03.748Z,31.57
2018-03-16T09:47:32.083Z,33.20
2018-03-16T09:49:59.677Z,32.00
2018-03-16T09:52:27.224Z,27.93
2018-03-16T09:55:06.783Z,29.77
2018-03-16T09:57:34.327Z,29.77
2018-03-16T10:00:01.879Z,37.23
2018-03-16T10:02:29.462Z,32.23
2018-03-16T10:04:57.032Z,29.93
2018-03-16T10:07:24.579Z,30.43
2018-03-16T10:09:52.161Z,26.33
2018-03-16T10:12:19.734Z,32.53
2018-03-16T10:14:47.298Z,32.27
2018-03-16T10:17:15.745Z,31.43
2018-03-16T10:19:43.308Z,30.40
2018-03-16T10:22:10.873Z,25.23
2018-03-16T10:24:38.444Z,25.70
2018-03-16T10:27:05.991Z,29.37
2018-03-16T10:29:33.665Z,24.50
2018-03-16T10:32:01.256Z,27.17
2018-03-16T10:34:29.585Z,27.13
2018-03-16T10:36:57.171Z,24.73
2018-03-16T10:39:24.738Z,20.57
2018-03-16T10:41:52.397Z,25.80
2018-03-16T10:44:19.961Z,24.67
2018-03-16T10:46:47.617Z,30.57
2018-03-16T10:49:15.267Z,23.30
2018-03-16T10:51:42.935Z,26.60
2018-03-16T10:54:10.504Z,21.37
2018-03-16T10:56:38.161Z,27.73
2018-03-16T10:59:05.822Z,30.80
2018-03-16T11:01:39.027Z,30.10
2018-03-16T11:04:15.398Z,26.23
2018-03-16T11:09:46.731Z,26.40
2018-03-16T11:12:14.319Z,31.93
2018-03-16T11:14:41.874Z,29.93
2018-03-16T11:17:09.558Z,27.77
2018-03-16T11:19:37.131Z,24.80
2018-03-16T11:22:05.462Z,23.83
2018-03-16T11:24:33.014Z,25.07
2018-03-16T11:27:00.600Z,25.30
2018-03-16T11:29:28.267Z,26.27
2018-03-16T11:31:55.927Z,27.40
2018-03-16T11:34:23.587Z,29.03
2018-03-16T11:36:51.130Z,22.07
2018-03-16T11:39:18.689Z,22.03
2018-03-16T11:41:46.267Z,19.70
2018-03-16T11:44:13.826Z,19.23
2018-03-16T11:46:41.389Z,14.63
2018-03-16T11:49:09.064Z,19.77
2018-03-16T11:51:36.628Z,15.43
2018-03-16T11:54:04.191Z,20.20
2018-03-16T11:56:31.843Z,17.43
2018-03-16T11:58:59.541Z,17.00
2018-03-16T12:01:27.879Z,15.70
2018-03-16T12:03:55.557Z,13.63
2018-03-16T12:06:23.215Z,10.40
2018-03-16T12:08:50.774Z,15.20
2018-03-16T12:11:18.454Z,11.50
2018-03-16T12:13:46.111Z,14.30
2018-03-16T12:16:13.677Z,13.23
2018-03-16T12:18:41.255Z,17.90
2018-03-16T12:21:09.572Z,13.67
2018-03-16T12:23:37.130Z,14.90
2018-03-16T12:26:04.717Z,13.03
2018-03-16T12:28:49.433Z,11.77
2018-03-16T12:30:59.997Z,12.57
2018-03-16T12:33:27.614Z,9.33
2018-03-16T12:35:55.168Z,12.97
2018-03-16T12:38:22.810Z,13.50
2018-03-16T12:40:50.398Z,10.97
2018-03-16T12:43:17.958Z,10.47
2018-03-16T12:45:45.520Z,12.63
2018-03-16T12:48:13.165Z,11.83
2018-03-16T12:50:40.734Z,11.07
2018-03-16T12:53:08.288Z,11.23
2018-03-16T12:55:35.876Z,12.83
2018-03-16T12:58:03.432Z,11.53
2018-03-16T13:00:31.002Z,8.43
2018-03-16T13:02:58.593Z,14.77
2018-03-16T13:05:26.150Z,14.73
2018-03-16T13:07:54.485Z,12.30
2018-03-16T13:10:22.064Z,14.17
2018-03-16T13:12:49.612Z,12.07
2018-03-16T13:15:17.149Z,12.33
2018-03-16T13:17:44.726Z,13.43
2018-03-16T13:20:12.290Z,19.03
2018-03-16T13:22:39.859Z,23.33
2018-03-16T13:25:07.469Z,22.43
2018-03-16T13:27:35.017Z,21.40
2018-03-16T13:30:03.350Z,17.90
2018-03-16T13:32:31.007Z,17.80
2018-03-16T13:34:58.590Z,17.30
2018-03-16T13:37:26.246Z,15.47
2018-03-16T13:39:53.811Z,16.90
2018-03-16T13:42:21.381Z,15.07
2018-03-16T13:44:48.943Z,14.10
2018-03-16T13:47:16.538Z,17.30
2018-03-16T13:49:44.112Z,16.70
2018-03-16T13:52:11.689Z,14.60
2018-03-16T13:54:39.264Z,19.57
2018-03-16T13:57:06.832Z,15.20
2018-03-16T13:59:34.385Z,13.37
2018-03-16T14:02:02.059Z,16.23
2018-03-16T14:04:29.603Z,15.03
2018-03-16T14:06:57.161Z,18.17
2018-03-16T14:09:24.845Z,14.50
2018-03-16T14:11:52.473Z,15.97
2018-03-16T14:14:20.058Z,15.17
2018-03-16T14:16:47.716Z,15.73
2018-03-16T14:19:15.369Z,11.83
2018-03-16T14:21:42.991Z,17.30
2018-03-16T14:24:11.412Z,13.73
2018-03-16T14:26:38.958Z,11.70
2018-03-16T14:29:06.517Z,13.37
2018-03-16T14:31:34.095Z,17.93
2018-03-16T14:34:01.639Z,16.23
2018-03-16T14:36:29.219Z,13.80
2018-03-16T14:38:56.877Z,16.43
2018-03-16T14:41:24.430Z,20.77
2018-03-16T14:43:52.088Z,17.03
2018-03-16T14:46:19.666Z,19.77
2018-03-16T14:48:47.327Z,15.37
2018-03-16T14:51:14.896Z,15.83
2018-03-16T14:53:42.502Z,22.63
2018-03-16T14:56:10.826Z,17.20
2018-03-16T14:58:38.382Z,17.73
2018-03-16T15:01:05.942Z,14.90
2018-03-16T15:03:33.492Z,15.97
2018-03-16T15:06:01.075Z,13.10
2018-03-16T15:08:28.635Z,17.47
2018-03-16T15:10:56.185Z,16.60
2018-03-16T15:13:23.743Z,17.80
2018-03-16T15:15:51.335Z,16.30
2018-03-16T15:18:18.897Z,14.10
2018-03-16T15:20:46.550Z,16.33
2018-03-16T15:23:14.128Z,15.17
2018-03-16T15:25:41.767Z,17.53
2018-03-16T15:28:09.331Z,16.63
2018-03-16T15:30:36.995Z,11.73
2018-03-16T15:33:04.555Z,17.67
2018-03-16T15:35:32.208Z,17.40
2018-03-16T15:37:59.868Z,17.20
2018-03-16T15:40:27.439Z,17.00
2018-03-16T15:42:55.174Z,17.80
2018-03-16T15:45:22.762Z,17.80
2018-03-16T15:47:50.325Z,20.00
2018-03-16T15:50:18.059Z,23.60
2018-03-16T15:52:45.648Z,28.37
2018-03-16T15:55:13.313Z,38.77
2018-03-16T15:57:40.979Z,38.37
2018-03-16T16:00:08.551Z,46.67
2018-03-16T16:02:36.111Z,65.00
2018-03-16T16:05:03.754Z,65.53
2018-03-16T16:07:31.321Z,66.97
2018-03-16T16:09:58.865Z,64.93
2018-03-16T16:12:26.426Z,64.33
2018-03-16T16:14:54.104Z,69.77
2018-03-16T16:17:21.647Z,57.00
2018-03-16T16:19:49.214Z,69.13
2018-03-16T16:22:16.799Z,69.70
2018-03-16T16:24:44.367Z,64.73
2018-03-16T16:27:12.722Z,59.97
2018-03-16T16:29:40.388Z,62.60
2018-03-16T16:32:07.967Z,71.47
2018-03-16T16:34:36.316Z,74.20
2018-03-16T16:37:03.884Z,69.13
2018-03-16T16:39:31.473Z,95.63
2018-03-16T16:41:59.801Z,96.43
2018-03-16T16:44:27.476Z,114.80
2018-03-16T16:46:55.071Z,112.67
2018-03-16T16:49:23.426Z,101.20
2018-03-16T16:51:51.096Z,98.60
2018-03-16T16:54:18.656Z,81.13
2018-03-16T16:56:46.212Z,87.93
2018-03-16T16:59:13.790Z,91.80
2018-03-16T17:01:41.355Z,81.53
2018-03-16T17:04:08.906Z,89.23
2018-03-16T17:06:37.253Z,59.93
2018-03-16T17:09:04.810Z,65.50
2018-03-16T17:11:32.364Z,57.00
2018-03-16T17:13:59.923Z,51.50
2018-03-16T17:16:27.476Z,59.60
2018-03-16T17:18:55.024Z,61.53
2018-03-16T17:21:22.619Z,55.80
2018-03-16T17:23:50.188Z,57.00
2018-03-16T17:26:17.744Z,56.57
2018-03-16T17:28:45.413Z,62.70
2018-03-16T17:31:12.969Z,64.73
2018-03-16T17:33:40.511Z,62.63
2018-03-16T17:36:08.120Z,65.10
2018-03-16T17:38:36.455Z,63.83
2018-03-16T17:41:04.031Z,62.37
2018-03-16T17:43:31.601Z,62.90
2018-03-16T17:45:59.154Z,65.40
2018-03-16T17:48:26.825Z,64.20
2018-03-16T17:50:54.412Z,71.03
2018-03-16T17:53:22.730Z,73.80
2018-03-16T17:55:50.317Z,73.17
2018-03-16T17:58:17.917Z,74.90
2018-03-16T18:00:46.260Z,75.30
2018-03-16T18:03:13.915Z,68.87
2018-03-16T18:05:41.578Z,63.27
2018-03-16T18:08:09.226Z,55.67
2018-03-16T18:10:36.781Z,55.33
2018-03-16T18:13:04.354Z,56.87
2018-03-16T18:15:31.912Z,62.50
2018-03-16T18:17:59.476Z,54.90
2018-03-16T18:20:27.167Z,54.07
2018-03-16T18:22:54.732Z,49.60
2018-03-16T18:25:22.275Z,49.63
2018-03-16T18:27:49.936Z,48.80
2018-03-16T18:30:17.496Z,49.17
2018-03-16T18:32:45.055Z,48.63
2018-03-16T18:35:12.639Z,46.53
2018-03-16T18:37:40.978Z,46.90
2018-03-16T18:40:08.546Z,46.37
2018-03-16T18:42:36.111Z,45.10
2018-03-16T18:45:03.763Z,47.00
2018-03-16T18:47:31.320Z,47.60
2018-03-16T18:49:58.886Z,49.17
2018-03-16T18:52:26.437Z,43.40
2018-03-16T18:54:54.015Z,47.43
2018-03-16T18:57:21.621Z,48.50
2018-03-16T18:59:49.946Z,45.90
2018-03-16T19:02:17.548Z,44.57
2018-03-16T19:04:45.105Z,44.03
2018-03-16T19:07:13.432Z,44.80
2018-03-16T19:09:40.998Z,45.80
2018-03-16T19:12:08.573Z,45.43
2018-03-16T19:14:36.129Z,44.97
2018-03-16T19:17:03.666Z,44.80
2018-03-16T19:19:31.312Z,46.83
2018-03-16T19:21:58.898Z,47.40
2018-03-16T19:24:26.746Z,49.40
2018-03-16T19:26:54.315Z,48.57
2018-03-16T19:29:21.911Z,48.57
2018-03-16T19:31:49.456Z,51.30
2018-03-16T19:34:17.030Z,47.77
2018-03-16T19:36:44.640Z,50.33
2018-03-16T19:39:12.257Z,50.43
2018-03-16T19:41:39.847Z,52.37
2018-03-16T19:44:08.183Z,50.47
2018-03-16T19:46:35.743Z,49.53
2018-03-16T19:49:03.308Z,52.33
2018-03-16T19:51:30.979Z,49.63
2018-03-16T19:53:58.563Z,50.73
2018-03-16T19:56:26.987Z,49.47
2018-03-16T19:58:54.553Z,47.50
2018-03-16T20:01:22.112Z,49.20
2018-03-16T20:03:49.679Z,49.20
2018-03-16T20:06:17.254Z,46.83
2018-03-16T20:08:44.812Z,47.57
2018-03-16T20:11:12.376Z,46.67
2018-03-16T20:13:39.955Z,46.47
2018-03-16T20:16:07.521Z,48.93
2018-03-16T20:18:35.864Z,48.63
2018-03-16T20:21:03.405Z,52.50
2018-03-16T20:23:30.953Z,52.03
2018-03-16T20:25:58.535Z,52.93
2018-03-16T20:28:26.098Z,55.47
2018-03-16T20:30:53.671Z,55.43
2018-03-16T20:33:21.260Z,51.43
2018-03-16T20:35:48.827Z,53.67
2018-03-16T20:38:17.247Z,53.60
2018-03-16T20:40:44.828Z,56.63
2018-03-16T20:43:12.384Z,53.20
2018-03-16T20:45:39.965Z,55.60
2018-03-16T20:48:07.629Z,57.07
2018-03-16T20:50:35.206Z,58.50
2018-03-16T20:53:03.539Z,56.27
2018-03-16T20:55:31.121Z,56.83
2018-03-16T20:57:58.689Z,57.97
2018-03-16T21:00:26.344Z,56.70
2018-03-16T21:02:53.923Z,53.33
2018-03-16T21:05:21.466Z,56.57
2018-03-16T21:07:49.109Z,54.47
2018-03-16T21:10:16.777Z,53.43
2018-03-16T21:12:44.322Z,54.83
2018-03-16T21:15:11.906Z,56.73
2018-03-16T21:17:39.570Z,53.60
2018-03-16T21:20:07.163Z,51.83
2018-03-16T21:22:34.792Z,51.70
2018-03-16T21:25:02.446Z,51.80
2018-03-16T21:27:30.001Z,54.13
2018-03-16T21:29:57.656Z,55.13
2018-03-16T21:32:25.346Z,52.77
2018-03-16T21:34:52.904Z,57.47
2018-03-16T21:37:20.692Z,52.17
2018-03-16T21:39:49.054Z,50.80
2018-03-16T21:42:16.608Z,50.83
2018-03-16T21:44:44.179Z,46.97
2018-03-16T21:47:12.524Z,50.13
2018-03-16T21:49:40.100Z,49.73
2018-03-16T21:52:07.664Z,52.97
2018-03-16T21:54:35.232Z,48.37
2018-03-16T21:57:02.794Z,50.50
2018-03-16T21:59:30.360Z,53.83
2018-03-16T22:01:57.940Z,53.60
2018-03-16T22:04:26.258Z,53.00
2018-03-16T22:06:53.922Z,50.93
2018-03-16T22:09:21.498Z,51.67
2018-03-16T22:11:49.074Z,52.13
2018-03-16T22:14:16.620Z,47.50
2018-03-16T22:16:44.204Z,49.63
2018-03-16T22:19:11.857Z,49.43
2018-03-16T22:21:39.413Z,50.30
2018-03-16T22:24:06.999Z,52.83
2018-03-16T22:26:34.648Z,53.50
2018-03-16T22:29:02.983Z,50.73
2018-03-16T22:31:30.571Z,52.50
2018-03-16T22:33:58.135Z,52.07
2018-03-16T22:36:25.694Z,51.07
2018-03-16T22:38:53.847Z,52.20
2018-03-16T22:41:21.406Z,52.27
2018-03-16T22:43:48.998Z,51.70
2018-03-16T22:46:16.650Z,54.57
2018-03-16T22:48:44.302Z,55.23
2018-03-16T22:51:11.840Z,52.80
2018-03-16T22:53:39.395Z,52.20
2018-03-16T22:56:07.723Z,53.33
2018-03-16T22:58:35.268Z,53.27
2018-03-16T23:01:02.852Z,48.93
2018-03-16T23:03:30.459Z,47.63
2018-03-16T23:05:58.007Z,46.50
2018-03-16T23:08:26.348Z,45.33
2018-03-16T23:10:53.906Z,50.23
2018-03-16T23:13:21.480Z,51.00
2018-03-16T23:15:49.069Z,53.63
2018-03-16T23:18:17.391Z,52.77
2018-03-16T23:20:44.942Z,49.50
2018-03-16T23:23:12.512Z,50.47
2018-03-16T23:25:40.054Z,50.97
2018-03-16T23:28:07.645Z,49.60
2018-03-16T23:30:35.415Z,48.30
2018-03-16T23:33:04.887Z,52.53
2018-03-16T23:35:32.492Z,49.10
2018-03-16T23:38:00.063Z,49.67
2018-03-16T23:40:29.148Z,49.63
2018-03-16T23:42:56.799Z,49.27
2018-03-16T23:45:24.379Z,50.80
2018-03-16T23:47:52.037Z,52.70
2018-03-16T23:50:19.596Z,49.50
2018-03-16T23:52:47.162Z,49.63
2018-03-16T23:55:14.715Z,50.37
2018-03-16T23:57:42.265Z,49.40
